• Join FlightAware (Why Join?)
  • Login
  • US Flag 
09:57AM EDT


 

Airport Tracker/Info


-or-


 

Live Flight TrackerFlight Track Log ✈ ASQ6151 ✈ 31-Aug-2013 ✈ KGSO - KORD

Flight Track Log - Related Links

Times and Time Zones

All times are in EDT time to prevent confusion due to time zone crossing. See the ASQ6151 flight status page for this flight to view local times or setup timezone preferences in your user account.

Time Position Orientation Groundspeed Altitude Reporting Facility
EDT Latitude Longitude Course Direction KTS MPH feet Rate Location/Type
06:15PM 36.0969 -80.0275 302° West 235 270 3,900  Level Atlanta Center
06:16PM 36.1497 -80.1097 308° West 278 320 6,900 3,000 Climbing Atlanta Center
06:17PM 36.1936 -80.1769 309° West 271 312 10,000 2,220 Climbing Atlanta Center
06:18PM 36.3085 -80.3170 302° West  Level FlightAware Approximate
06:18PM 36.2397 -80.2519 307° West 289 333 11,400  Level Atlanta Center
06:19PM 36.3636 -80.4114 307° West  Level FlightAware Approximate
06:19PM 36.2947 -80.3422 307° West 311 358 13,300  Level Atlanta Center
06:20PM 36.4193 -80.5054 302° West  Level FlightAware Approximate
06:20PM 36.3614 -80.4114 320° Northwest 329 379 15,200  Level Atlanta Center
06:21PM 36.4690 -80.6046 302° West  Level FlightAware Approximate
06:21PM 36.4464 -80.4694 331° Northwest 336 387 17,100  Level Atlanta Center
06:22PM 36.5336 -80.5275 332° Northwest 342 394 19,000 1,860 Climbing Atlanta Center
06:23PM 36.6186 -80.5806 333° Northwest 348 400 20,900 1,800 Climbing Atlanta Center
06:24PM 36.7036 -80.6392 331° Northwest 348 400 22,700 1,260 Climbing Atlanta Center
06:25PM 36.7992 -80.7075 330° Northwest 353 406 23,500 1,080 Climbing Atlanta Center
06:26PM 36.8928 -80.7686 332° Northwest 367 422 24,900 1,380 Climbing Atlanta Center
06:27PM 36.9733 -80.8250 331° Northwest 372 428 26,300 1,380 Climbing Atlanta Center
06:28PM 37.0625 -80.8864 331° Northwest 372 428 27,700 1,500 Climbing Atlanta Center
06:29PM 37.1386 -80.9322 334° Northwest 370 426 28,900 1,440 Climbing Indianapolis Center
06:30PM 37.2256 -80.9919 331° Northwest 367 422 30,200 1,140 Climbing Indianapolis Center
06:31PM 37.3147 -81.0528 332° Northwest 372 428 31,300 840 Climbing Indianapolis Center
06:32PM 37.4108 -81.1061 336° Northwest 386 444 32,000 300 Climbing Indianapolis Center
06:33PM 37.5453 -81.1403 349° North 418 481 32,000 480 Level Indianapolis Center
06:34PM 37.6628 -81.1700 349° North 437 503 33,000 1,020 Climbing Indianapolis Center
06:35PM 37.7769 -81.1992 349° North 433 498 34,200 1,260 Climbing Indianapolis Center
06:36PM 37.9056 -81.2325 348° North 426 490 35,600 840 Climbing Indianapolis Center
06:37PM 38.0206 -81.2622 348° North 422 486 36,000 180 Climbing Indianapolis Center
06:38PM 38.1411 -81.2925 349° North 436 502 36,000  Level Indianapolis Center
06:39PM 38.2644 -81.3239 349° North 449 517 36,000  Level Indianapolis Center
06:40PM 38.3869 -81.3564 348° North 449 517 36,000  Level Indianapolis Center
06:41PM 38.5067 -81.3867 349° North 442 509 36,000  Level Indianapolis Center
06:42PM 38.6308 -81.4183 349° North 436 502 36,000 -300 Level Indianapolis Center
06:43PM 38.7483 -81.4514 348° North 434 499 35,500 -840 Descending Indianapolis Center
06:44PM 38.8778 -81.4842 349° North 437 503 34,400 -780 Descending Indianapolis Center
06:45PM 38.9903 -81.5225 345° North 417 480 34,000 -660 Descending Indianapolis Center
06:46PM 39.0978 -81.5725 340° North 412 474 33,100 -960 Descending Indianapolis Center
06:48PM 39.2092 -81.6225 341° North 422 486 32,100 -600 Descending Indianapolis Center
06:49PM 39.3203 -81.6758 340° North 425 489 31,900 -600 Descending Indianapolis Center
06:50PM 39.4328 -81.7269 341° North 429 494 31,000 -960 Descending Indianapolis Center
06:51PM 39.5483 -81.7800 341° North 438 504 30,000 -540 Descending Indianapolis Center
06:52PM 39.6392 -81.8775 320° Northwest 425 489 30,000  Level Indianapolis Center
06:53PM 39.7156 -82.0186 305° West 421 484 30,000  Level Indianapolis Center
06:54PM 39.7869 -82.1442 307° West 432 497 30,000 -120 Level Indianapolis Center
06:55PM 39.8600 -82.2694 307° West 433 498 29,800 -1,080 Descending Indianapolis Center
06:56PM 39.9414 -82.3897 311° West 450 518 27,900 -1,800 Descending Indianapolis Center
06:57PM 40.0289 -82.5042 315° West 449 517 26,200 -1,440 Descending Indianapolis Center
06:58PM 40.1142 -82.6167 315° West 441 507 25,000 -1,140 Descending Indianapolis Center
06:59PM 40.2022 -82.7242 317° Northwest 436 502 24,000 -780 Descending Indianapolis Center
07:00PM 40.2878 -82.8269 318° Northwest 425 489 23,500 -960 Descending Indianapolis Center
07:01PM 40.3703 -82.9333 316° Northwest 419 482 22,100 -780 Descending Indianapolis Center
07:02PM 40.4719 -83.0569 317° Northwest 418 481 22,000 -60 Descending Indianapolis Center
07:03PM 40.5503 -83.1608 315° West 405 466 22,000  Level Indianapolis Center
07:04PM 40.6258 -83.2647 314° West 397 457 22,000 -300 Level Indianapolis Center
07:05PM 40.6875 -83.3664 309° West 365 420 21,400 -540 Descending Indianapolis Center
07:06PM 40.7150 -83.4900 286° West 355 409 21,000 -240 Descending Indianapolis Center
07:07PM 40.7483 -83.6147 289° West 360 414 21,000  Level Indianapolis Center
07:08PM 40.7875 -83.7381 293° West 364 419 21,000  Level Indianapolis Center
07:09PM 40.8311 -83.8683 294° West 383 441 21,000 -60 Level Indianapolis Center
07:10PM 40.8747 -84.0033 293° West 397 457 20,900 -540 Descending Indianapolis Center
07:11PM 40.9192 -84.1411 293° West 408 470 20,000 -480 Descending Indianapolis Center
07:12PM 40.9500 -84.2883 286° West 412 474 20,000  Level Indianapolis Center
07:13PM 40.9833 -84.4303 287° West 408 470 20,000  Level Indianapolis Center
07:14PM 41.0228 -84.6042 287° West 412 474 20,000  Level Indianapolis Center
07:15PM 41.0553 -84.7522 286° West 418 481 20,000  Level Indianapolis Center
07:16PM 41.0878 -84.8939 287° West 407 468 20,000  Level Indianapolis Center
07:17PM 41.1192 -85.0397 286° West 406 467 20,000  Level Indianapolis Center
07:18PM 41.1506 -85.1819 286° West 406 467 20,000  Level Indianapolis Center
07:19PM 41.1811 -85.3239 286° West 404 465 20,000  Level Indianapolis Center
07:20PM 41.2133 -85.4678 287° West 407 468 20,000  Level Indianapolis Center
07:21PM 41.2439 -85.6094 286° West 404 465 20,000  Level Indianapolis Center
07:22PM 41.2753 -85.7539 286° West 407 468 20,000  Level Indianapolis Center
07:23PM 41.3050 -85.8975 285° West 406 467 20,000  Level Indianapolis Center
07:24PM 41.3356 -86.0397 286° West 404 465 20,000  Level Indianapolis Center
07:25PM 41.3647 -86.1817 285° West 402 463 20,000 -540 Level Indianapolis Center
07:26PM 41.4097 -86.3975 286° West 401 461 18,800 -1,200 Descending Chicago Center
07:28PM 41.4392 -86.5408 285° West 401 461 17,200 -1,500 Descending Chicago Center
07:29PM 41.4669 -86.6739 286° West 378 435 15,800 -1,260 Descending Chicago Center
07:30PM 41.4947 -86.8100 285° West 353 406 14,700 -1,080 Descending Chicago Center
07:31PM 41.5203 -86.9358 285° West 354 407 13,700 -1,080 Descending Chicago Center
07:32PM 41.5453 -87.0625 285° West 357 411 12,600 -840 Descending Chicago Center
07:33PM 41.5708 -87.1906 285° West 359 413 12,000 -780 Descending Chicago Center
07:34PM 41.6164 -87.3008 299° West 345 397 11,100 -1,020 Descending Chicago Center
07:35PM 41.6772 -87.4017 309° West 351 404 10,000 -780 Descending Chicago Center
07:36PM 41.7411 -87.5069 309° West 302 348 9,600 -1,080 Descending Chicago Center
07:37PM 41.7875 -87.5842 309° West 273 314 7,900 -1,320 Descending Chicago Center
07:38PM 41.8194 -87.6639 298° West 262 302 7,000 -480 Descending Chicago Center
07:39PM 41.8147 -87.7486 266° West 233 268 7,000 -240 Level Chicago Center
07:40PM 41.8108 -87.8436 267° West 252 290 6,600 -1,080 Descending Chicago Center
07:41PM 41.8078 -87.9381 268° West 256 295 4,800 -1,800 Descending Chicago Center
07:42PM 41.8486 -88.0131 306° West 258 297 3,000 -1,380 Descending Chicago Center
07:43PM 41.9000 -87.9667 34° Northeast 196 226 2,100 -960 Descending Chicago TRACON
07:44PM 41.9333 -87.9333 37° Northeast 141 162 1,300 -900 Descending Chicago TRACON